sensor_id;sensor_type;location;lat;lon;timestamp;P1;durP1;ratioP1;P2;durP2;ratioP2
60641;SDS011;46837;52.446;-1.930;2023-04-19T00:00:08;19.84;;;10.02;;
60641;SDS011;46837;52.446;-1.930;2023-04-19T00:01:07;24.14;;;10.88;;
60641;SDS011;46837;52.446;-1.930;2023-04-19T00:02:07;26.96;;;10.36;;
60641;SDS011;46837;52.446;-1.930;2023-04-19T00:03:07;25.08;;;11.50;;
60641;SDS011;46837;52.446;-1.930;2023-04-19T00:04:07;20.44;;;10.72;;
60641;SDS011;46837;52.446;-1.930;2023-04-19T00:05:07;16.54;;;9.62;;
60641;SDS011;46837;52.446;-1.930;2023-04-19T00:06:08;17.40;;;10.88;;
60641;SDS011;46837;52.446;-1.930;2023-04-19T00:07:07;27.94;;;11.84;;
60641;SDS011;46837;52.446;-1.930;2023-04-19T00:08:07;28.18;;;11.40;;
60641;SDS011;46837;52.446;-1.930;2023-04-19T00:09:07;27.26;;;12.28;;
60641;SDS011;46837;52.446;-1.930;2023-04-19T00:10:07;25.98;;;11.72;;
60641;SDS011;46837;52.446;-1.930;2023-04-19T00:11:07;24.04;;;11.02;;
60641;SDS011;46837;52.446;-1.930;2023-04-19T00:12:07;24.54;;;10.44;;
60641;SDS011;46837;52.446;-1.930;2023-04-19T00:13:07;24.92;;;10.66;;
60641;SDS011;46837;52.446;-1.930;2023-04-19T00:14:07;35.34;;;14.18;;
60641;SDS011;46837;52.446;-1.930;2023-04-19T00:15:07;35.64;;;11.68;;
60641;SDS011;46837;52.446;-1.930;2023-04-19T00:16:07;20.04;;;12.16;;
60641;SDS011;46837;52.446;-1.930;2023-04-19T00:17:07;29.92;;;12.34;;
60641;SDS011;46837;52.446;-1.930;2023-04-19T00:18:07;28.46;;;13.82;;
60641;SDS011;46837;52.446;-1.930;2023-04-19T00:19:07;22.24;;;9.94;;
60641;SDS011;46837;52.446;-1.930;2023-04-19T00:20:07;26.40;;;11.64;;
60641;SDS011;46837;52.446;-1.930;2023-04-19T00:21:07;18.66;;;10.64;;
60641;SDS011;46837;52.446;-1.930;2023-04-19T00:22:07;20.98;;;12.04;;
60641;SDS011;46837;52.446;-1.930;2023-04-19T00:23:07;26.14;;;10.36;;
60641;SDS011;46837;52.446;-1.930;2023-04-19T00:24:07;28.64;;;12.64;;
60641;SDS011;46837;52.446;-1.930;2023-04-19T00:25:07;29.46;;;10.28;;
60641;SDS011;46837;52.446;-1.930;2023-04-19T00:26:07;31.80;;;10.82;;
60641;SDS011;46837;52.446;-1.930;2023-04-19T00:27:07;25.16;;;11.62;;
60641;SDS011;46837;52.446;-1.930;2023-04-19T00:28:07;23.84;;;10.26;;
60641;SDS011;46837;52.446;-1.930;2023-04-19T00:29:07;38.10;;;11.36;;
60641;SDS011;46837;52.446;-1.930;2023-04-19T00:30:07;26.70;;;11.38;;
60641;SDS011;46837;52.446;-1.930;2023-04-19T00:31:07;29.38;;;12.10;;
60641;SDS011;46837;52.446;-1.930;2023-04-19T00:32:07;22.56;;;10.28;;
60641;SDS011;46837;52.446;-1.930;2023-04-19T00:33:11;32.06;;;12.16;;
60641;SDS011;46837;52.446;-1.930;2023-04-19T00:34:07;24.04;;;10.26;;
60641;SDS011;46837;52.446;-1.930;2023-04-19T00:35:07;27.40;;;12.38;;
60641;SDS011;46837;52.446;-1.930;2023-04-19T00:36:07;29.16;;;11.26;;
60641;SDS011;46837;52.446;-1.930;2023-04-19T00:37:07;24.30;;;10.94;;
60641;SDS011;46837;52.446;-1.930;2023-04-19T00:38:07;26.46;;;11.70;;
60641;SDS011;46837;52.446;-1.930;2023-04-19T00:39:07;24.36;;;11.58;;
60641;SDS011;46837;52.446;-1.930;2023-04-19T00:40:07;25.36;;;11.96;;
60641;SDS011;46837;52.446;-1.930;2023-04-19T00:41:07;23.74;;;10.00;;
60641;SDS011;46837;52.446;-1.930;2023-04-19T00:42:07;24.94;;;11.36;;
60641;SDS011;46837;52.446;-1.930;2023-04-19T00:43:07;22.16;;;12.06;;
60641;SDS011;46837;52.446;-1.930;2023-04-19T00:44:07;17.70;;;10.00;;
60641;SDS011;46837;52.446;-1.930;2023-04-19T00:45:07;22.56;;;10.62;;
60641;SDS011;46837;52.446;-1.930;2023-04-19T00:46:07;31.76;;;10.62;;
60641;SDS011;46837;52.446;-1.930;2023-04-19T00:47:07;24.18;;;10.58;;
60641;SDS011;46837;52.446;-1.930;2023-04-19T00:48:07;21.10;;;10.52;;
60641;SDS011;46837;52.446;-1.930;2023-04-19T00:49:07;23.50;;;10.66;;
60641;SDS011;46837;52.446;-1.930;2023-04-19T00:50:07;27.86;;;11.76;;
60641;SDS011;46837;52.446;-1.930;2023-04-19T00:51:07;29.86;;;10.76;;
60641;SDS011;46837;52.446;-1.930;2023-04-19T00:52:07;25.58;;;11.18;;
60641;SDS011;46837;52.446;-1.930;2023-04-19T00:53:07;23.04;;;11.46;;
60641;SDS011;46837;52.446;-1.930;2023-04-19T00:54:07;30.82;;;10.94;;
60641;SDS011;46837;52.446;-1.930;2023-04-19T00:55:07;22.76;;;9.90;;
60641;SDS011;46837;52.446;-1.930;2023-04-19T00:56:07;25.32;;;11.72;;
60641;SDS011;46837;52.446;-1.930;2023-04-19T00:57:07;25.66;;;11.84;;
60641;SDS011;46837;52.446;-1.930;2023-04-19T00:58:07;20.12;;;10.60;;
60641;SDS011;46837;52.446;-1.930;2023-04-19T00:59:07;27.88;;;11.42;;
60641;SDS011;46837;52.446;-1.930;2023-04-19T01:00:07;43.50;;;11.72;;
60641;SDS011;46837;52.446;-1.930;2023-04-19T01:01:07;28.46;;;12.38;;
60641;SDS011;46837;52.446;-1.930;2023-04-19T01:02:08;25.88;;;12.74;;
60641;SDS011;46837;52.446;-1.930;2023-04-19T01:03:07;24.32;;;12.06;;
60641;SDS011;46837;52.446;-1.930;2023-04-19T01:04:07;29.10;;;11.74;;
60641;SDS011;46837;52.446;-1.930;2023-04-19T01:05:07;27.18;;;11.98;;
60641;SDS011;46837;52.446;-1.930;2023-04-19T01:06:07;31.02;;;12.94;;
60641;SDS011;46837;52.446;-1.930;2023-04-19T01:07:07;30.30;;;10.92;;
60641;SDS011;46837;52.446;-1.930;2023-04-19T01:08:07;34.08;;;13.42;;
60641;SDS011;46837;52.446;-1.930;2023-04-19T01:09:07;31.02;;;12.88;;
60641;SDS011;46837;52.446;-1.930;2023-04-19T01:10:07;31.00;;;11.94;;
60641;SDS011;46837;52.446;-1.930;2023-04-19T01:11:07;34.20;;;11.80;;
60641;SDS011;46837;52.446;-1.930;2023-04-19T01:12:07;29.80;;;12.92;;
60641;SDS011;46837;52.446;-1.930;2023-04-19T01:13:07;30.44;;;11.84;;
60641;SDS011;46837;52.446;-1.930;2023-04-19T01:14:07;26.26;;;11.34;;
60641;SDS011;46837;52.446;-1.930;2023-04-19T01:15:07;20.36;;;10.36;;
60641;SDS011;46837;52.446;-1.930;2023-04-19T01:16:07;25.84;;;12.36;;
60641;SDS011;46837;52.446;-1.930;2023-04-19T01:17:07;25.88;;;11.34;;
60641;SDS011;46837;52.446;-1.930;2023-04-19T01:18:07;27.50;;;12.42;;
60641;SDS011;46837;52.446;-1.930;2023-04-19T01:19:07;28.26;;;11.64;;
60641;SDS011;46837;52.446;-1.930;2023-04-19T01:20:08;25.06;;;13.02;;
60641;SDS011;46837;52.446;-1.930;2023-04-19T01:21:07;24.62;;;12.42;;
60641;SDS011;46837;52.446;-1.930;2023-04-19T01:22:07;35.86;;;13.80;;
60641;SDS011;46837;52.446;-1.930;2023-04-19T01:23:07;26.40;;;13.14;;
60641;SDS011;46837;52.446;-1.930;2023-04-19T01:24:07;29.64;;;11.28;;
60641;SDS011;46837;52.446;-1.930;2023-04-19T01:25:07;25.06;;;12.72;;
60641;SDS011;46837;52.446;-1.930;2023-04-19T01:26:07;31.88;;;12.44;;
60641;SDS011;46837;52.446;-1.930;2023-04-19T01:27:07;35.24;;;14.18;;
60641;SDS011;46837;52.446;-1.930;2023-04-19T01:28:07;25.28;;;12.98;;
60641;SDS011;46837;52.446;-1.930;2023-04-19T01:29:07;35.00;;;13.90;;
60641;SDS011;46837;52.446;-1.930;2023-04-19T01:30:07;39.96;;;16.50;;
60641;SDS011;46837;52.446;-1.930;2023-04-19T01:31:07;27.70;;;13.70;;
60641;SDS011;46837;52.446;-1.930;2023-04-19T01:32:07;30.24;;;12.22;;
60641;SDS011;46837;52.446;-1.930;2023-04-19T01:33:07;23.00;;;12.44;;
60641;SDS011;46837;52.446;-1.930;2023-04-19T01:34:07;21.96;;;12.14;;
60641;SDS011;46837;52.446;-1.930;2023-04-19T01:35:07;30.96;;;13.12;;
60641;SDS011;46837;52.446;-1.930;2023-04-19T01:36:07;34.54;;;12.86;;
60641;SDS011;46837;52.446;-1.930;2023-04-19T01:37:07;34.82;;;13.80;;
60641;SDS011;46837;52.446;-1.930;2023-04-19T01:38:07;23.32;;;12.66;;
60641;SDS011;46837;52.446;-1.930;2023-04-19T01:39:07;38.62;;;14.02;;
60641;SDS011;46837;52.446;-1.930;2023-04-19T01:40:07;26.84;;;13.34;;
60641;SDS011;46837;52.446;-1.930;2023-04-19T01:41:07;30.70;;;13.36;;
60641;SDS011;46837;52.446;-1.930;2023-04-19T01:42:07;31.90;;;13.02;;
60641;SDS011;46837;52.446;-1.930;2023-04-19T01:43:07;28.50;;;13.14;;
60641;SDS011;46837;52.446;-1.930;2023-04-19T01:44:07;31.68;;;12.88;;
60641;SDS011;46837;52.446;-1.930;2023-04-19T01:45:07;45.40;;;14.56;;
60641;SDS011;46837;52.446;-1.930;2023-04-19T01:46:07;31.16;;;13.88;;
60641;SDS011;46837;52.446;-1.930;2023-04-19T01:47:07;37.46;;;12.86;;
60641;SDS011;46837;52.446;-1.930;2023-04-19T01:48:07;25.12;;;12.04;;
60641;SDS011;46837;52.446;-1.930;2023-04-19T01:49:07;33.20;;;13.98;;
60641;SDS011;46837;52.446;-1.930;2023-04-19T01:50:07;28.80;;;13.14;;
60641;SDS011;46837;52.446;-1.930;2023-04-19T01:51:07;29.86;;;12.92;;
60641;SDS011;46837;52.446;-1.930;2023-04-19T01:52:07;33.54;;;14.68;;
60641;SDS011;46837;52.446;-1.930;2023-04-19T01:53:07;45.80;;;15.16;;
60641;SDS011;46837;52.446;-1.930;2023-04-19T01:54:07;33.42;;;13.48;;
60641;SDS011;46837;52.446;-1.930;2023-04-19T01:55:07;33.60;;;15.90;;
60641;SDS011;46837;52.446;-1.930;2023-04-19T01:56:07;23.68;;;12.38;;
60641;SDS011;46837;52.446;-1.930;2023-04-19T01:57:07;23.20;;;13.86;;
60641;SDS011;46837;52.446;-1.930;2023-04-19T01:58:07;26.80;;;12.94;;
60641;SDS011;46837;52.446;-1.930;2023-04-19T01:59:07;22.90;;;11.94;;
60641;SDS011;46837;52.446;-1.930;2023-04-19T02:00:07;32.38;;;12.16;;
60641;SDS011;46837;52.446;-1.930;2023-04-19T02:01:07;25.44;;;12.62;;
60641;SDS011;46837;52.446;-1.930;2023-04-19T02:02:07;38.04;;;14.74;;
60641;SDS011;46837;52.446;-1.930;2023-04-19T02:03:07;30.34;;;13.52;;
60641;SDS011;46837;52.446;-1.930;2023-04-19T02:04:07;26.78;;;12.56;;
60641;SDS011;46837;52.446;-1.930;2023-04-19T02:05:07;33.34;;;13.68;;
60641;SDS011;46837;52.446;-1.930;2023-04-19T02:06:10;26.94;;;13.48;;
60641;SDS011;46837;52.446;-1.930;2023-04-19T02:07:07;27.62;;;13.70;;
60641;SDS011;46837;52.446;-1.930;2023-04-19T02:08:07;29.92;;;13.74;;
60641;SDS011;46837;52.446;-1.930;2023-04-19T02:09:07;26.92;;;11.82;;
60641;SDS011;46837;52.446;-1.930;2023-04-19T02:10:08;27.52;;;12.08;;
60641;SDS011;46837;52.446;-1.930;2023-04-19T02:11:07;36.82;;;12.36;;
60641;SDS011;46837;52.446;-1.930;2023-04-19T02:12:07;29.88;;;13.36;;
60641;SDS011;46837;52.446;-1.930;2023-04-19T02:13:07;27.18;;;12.68;;
60641;SDS011;46837;52.446;-1.930;2023-04-19T02:14:07;35.84;;;14.16;;
60641;SDS011;46837;52.446;-1.930;2023-04-19T02:15:07;39.54;;;16.74;;
60641;SDS011;46837;52.446;-1.930;2023-04-19T02:16:07;31.62;;;14.88;;
60641;SDS011;46837;52.446;-1.930;2023-04-19T02:17:07;29.22;;;13.34;;
60641;SDS011;46837;52.446;-1.930;2023-04-19T02:18:07;28.76;;;12.76;;
60641;SDS011;46837;52.446;-1.930;2023-04-19T02:19:07;33.40;;;14.32;;
60641;SDS011;46837;52.446;-1.930;2023-04-19T02:20:07;30.50;;;12.82;;
60641;SDS011;46837;52.446;-1.930;2023-04-19T02:21:07;26.62;;;12.28;;
60641;SDS011;46837;52.446;-1.930;2023-04-19T02:22:07;35.98;;;14.16;;
60641;SDS011;46837;52.446;-1.930;2023-04-19T02:23:07;26.48;;;14.20;;
60641;SDS011;46837;52.446;-1.930;2023-04-19T02:24:07;26.26;;;12.74;;
60641;SDS011;46837;52.446;-1.930;2023-04-19T02:25:07;32.32;;;13.30;;
60641;SDS011;46837;52.446;-1.930;2023-04-19T02:26:07;28.76;;;13.88;;
60641;SDS011;46837;52.446;-1.930;2023-04-19T02:27:07;34.00;;;12.42;;
60641;SDS011;46837;52.446;-1.930;2023-04-19T02:28:07;35.56;;;14.06;;
60641;SDS011;46837;52.446;-1.930;2023-04-19T02:29:07;32.54;;;12.58;;
60641;SDS011;46837;52.446;-1.930;2023-04-19T02:30:07;24.10;;;12.90;;
60641;SDS011;46837;52.446;-1.930;2023-04-19T02:31:07;25.06;;;12.56;;
60641;SDS011;46837;52.446;-1.930;2023-04-19T02:32:07;25.62;;;12.36;;
60641;SDS011;46837;52.446;-1.930;2023-04-19T02:33:07;33.58;;;13.92;;
60641;SDS011;46837;52.446;-1.930;2023-04-19T02:34:07;20.66;;;13.74;;
60641;SDS011;46837;52.446;-1.930;2023-04-19T02:35:07;37.02;;;15.90;;
60641;SDS011;46837;52.446;-1.930;2023-04-19T02:36:07;24.42;;;12.76;;
60641;SDS011;46837;52.446;-1.930;2023-04-19T02:37:07;28.60;;;13.72;;
60641;SDS011;46837;52.446;-1.930;2023-04-19T02:38:07;32.50;;;12.12;;
60641;SDS011;46837;52.446;-1.930;2023-04-19T02:39:07;34.34;;;13.82;;
60641;SDS011;46837;52.446;-1.930;2023-04-19T02:40:07;30.08;;;13.94;;
60641;SDS011;46837;52.446;-1.930;2023-04-19T02:41:07;35.28;;;12.66;;
60641;SDS011;46837;52.446;-1.930;2023-04-19T02:42:07;22.38;;;12.96;;
60641;SDS011;46837;52.446;-1.930;2023-04-19T02:43:07;35.58;;;13.64;;
60641;SDS011;46837;52.446;-1.930;2023-04-19T02:44:07;30.56;;;14.68;;
60641;SDS011;46837;52.446;-1.930;2023-04-19T02:45:07;23.96;;;12.14;;
60641;SDS011;46837;52.446;-1.930;2023-04-19T02:46:07;35.58;;;14.18;;
60641;SDS011;46837;52.446;-1.930;2023-04-19T02:47:07;32.58;;;14.00;;
60641;SDS011;46837;52.446;-1.930;2023-04-19T02:48:07;27.92;;;12.54;;
60641;SDS011;46837;52.446;-1.930;2023-04-19T02:49:07;33.78;;;13.46;;
60641;SDS011;46837;52.446;-1.930;2023-04-19T02:50:07;24.30;;;13.30;;
60641;SDS011;46837;52.446;-1.930;2023-04-19T02:51:07;29.98;;;14.30;;
60641;SDS011;46837;52.446;-1.930;2023-04-19T02:52:07;35.70;;;15.92;;
60641;SDS011;46837;52.446;-1.930;2023-04-19T02:53:07;30.48;;;13.80;;
60641;SDS011;46837;52.446;-1.930;2023-04-19T02:54:07;32.02;;;13.94;;
60641;SDS011;46837;52.446;-1.930;2023-04-19T02:55:07;25.02;;;11.98;;
60641;SDS011;46837;52.446;-1.930;2023-04-19T02:56:07;25.72;;;12.68;;
60641;SDS011;46837;52.446;-1.930;2023-04-19T02:57:07;26.02;;;12.34;;
60641;SDS011;46837;52.446;-1.930;2023-04-19T02:58:07;40.80;;;13.94;;
60641;SDS011;46837;52.446;-1.930;2023-04-19T02:59:07;38.08;;;14.44;;
60641;SDS011;46837;52.446;-1.930;2023-04-19T03:00:07;22.72;;;12.90;;
60641;SDS011;46837;52.446;-1.930;2023-04-19T03:01:07;23.96;;;13.08;;
60641;SDS011;46837;52.446;-1.930;2023-04-19T03:02:07;28.38;;;13.56;;
60641;SDS011;46837;52.446;-1.930;2023-04-19T03:03:07;25.88;;;12.72;;
60641;SDS011;46837;52.446;-1.930;2023-04-19T03:04:07;32.24;;;14.66;;
60641;SDS011;46837;52.446;-1.930;2023-04-19T03:05:07;32.84;;;12.18;;
60641;SDS011;46837;52.446;-1.930;2023-04-19T03:06:07;21.28;;;12.60;;
60641;SDS011;46837;52.446;-1.930;2023-04-19T03:07:07;33.20;;;14.20;;
60641;SDS011;46837;52.446;-1.930;2023-04-19T03:08:07;30.88;;;14.86;;
60641;SDS011;46837;52.446;-1.930;2023-04-19T03:09:07;30.96;;;14.42;;
60641;SDS011;46837;52.446;-1.930;2023-04-19T03:10:07;28.06;;;13.06;;
60641;SDS011;46837;52.446;-1.930;2023-04-19T03:11:07;37.40;;;16.14;;
60641;SDS011;46837;52.446;-1.930;2023-04-19T03:12:07;26.90;;;14.54;;
60641;SDS011;46837;52.446;-1.930;2023-04-19T03:13:07;31.20;;;14.60;;
60641;SDS011;46837;52.446;-1.930;2023-04-19T03:14:07;34.66;;;13.86;;
60641;SDS011;46837;52.446;-1.930;2023-04-19T03:15:07;28.44;;;14.00;;
60641;SDS011;46837;52.446;-1.930;2023-04-19T03:16:07;34.00;;;15.76;;
60641;SDS011;46837;52.446;-1.930;2023-04-19T03:17:07;33.26;;;13.94;;
60641;SDS011;46837;52.446;-1.930;2023-04-19T03:18:07;36.18;;;15.06;;
60641;SDS011;46837;52.446;-1.930;2023-04-19T03:19:07;34.00;;;14.08;;
60641;SDS011;46837;52.446;-1.930;2023-04-19T03:20:09;38.60;;;15.50;;
60641;SDS011;46837;52.446;-1.930;2023-04-19T03:21:09;32.28;;;13.56;;
60641;SDS011;46837;52.446;-1.930;2023-04-19T03:22:07;34.88;;;16.82;;
60641;SDS011;46837;52.446;-1.930;2023-04-19T03:23:07;29.42;;;13.92;;
60641;SDS011;46837;52.446;-1.930;2023-04-19T03:24:07;30.50;;;14.96;;
60641;SDS011;46837;52.446;-1.930;2023-04-19T03:25:07;24.16;;;14.04;;
60641;SDS011;46837;52.446;-1.930;2023-04-19T03:26:07;29.04;;;14.64;;
60641;SDS011;46837;52.446;-1.930;2023-04-19T03:27:07;27.96;;;14.54;;
60641;SDS011;46837;52.446;-1.930;2023-04-19T03:28:07;44.36;;;14.96;;
60641;SDS011;46837;52.446;-1.930;2023-04-19T03:29:07;28.48;;;15.28;;
60641;SDS011;46837;52.446;-1.930;2023-04-19T03:30:07;40.92;;;16.24;;
60641;SDS011;46837;52.446;-1.930;2023-04-19T03:31:07;31.66;;;14.78;;
60641;SDS011;46837;52.446;-1.930;2023-04-19T03:32:07;29.44;;;15.24;;
60641;SDS011;46837;52.446;-1.930;2023-04-19T03:33:07;28.32;;;14.48;;
60641;SDS011;46837;52.446;-1.930;2023-04-19T03:34:07;38.44;;;14.70;;
60641;SDS011;46837;52.446;-1.930;2023-04-19T03:35:07;31.88;;;14.70;;
60641;SDS011;46837;52.446;-1.930;2023-04-19T03:36:07;33.08;;;14.66;;
60641;SDS011;46837;52.446;-1.930;2023-04-19T03:37:07;30.28;;;15.16;;
60641;SDS011;46837;52.446;-1.930;2023-04-19T03:38:07;32.86;;;15.66;;
60641;SDS011;46837;52.446;-1.930;2023-04-19T03:39:07;28.32;;;14.38;;
60641;SDS011;46837;52.446;-1.930;2023-04-19T03:40:07;31.66;;;14.72;;
60641;SDS011;46837;52.446;-1.930;2023-04-19T03:41:16;30.58;;;14.36;;
60641;SDS011;46837;52.446;-1.930;2023-04-19T03:42:07;29.42;;;14.20;;
60641;SDS011;46837;52.446;-1.930;2023-04-19T03:43:07;35.76;;;15.44;;
60641;SDS011;46837;52.446;-1.930;2023-04-19T03:44:07;29.22;;;14.52;;
60641;SDS011;46837;52.446;-1.930;2023-04-19T03:45:07;31.44;;;14.50;;
60641;SDS011;46837;52.446;-1.930;2023-04-19T03:46:07;35.08;;;13.90;;
60641;SDS011;46837;52.446;-1.930;2023-04-19T03:47:07;30.30;;;14.98;;
60641;SDS011;46837;52.446;-1.930;2023-04-19T03:48:07;39.80;;;16.62;;
60641;SDS011;46837;52.446;-1.930;2023-04-19T03:49:07;35.92;;;14.44;;
60641;SDS011;46837;52.446;-1.930;2023-04-19T03:50:07;33.26;;;15.64;;
60641;SDS011;46837;52.446;-1.930;2023-04-19T03:51:07;25.20;;;14.44;;
60641;SDS011;46837;52.446;-1.930;2023-04-19T03:52:07;29.96;;;14.24;;
60641;SDS011;46837;52.446;-1.930;2023-04-19T03:53:07;32.30;;;15.52;;
60641;SDS011;46837;52.446;-1.930;2023-04-19T03:54:07;26.70;;;14.66;;
60641;SDS011;46837;52.446;-1.930;2023-04-19T03:55:07;34.04;;;15.16;;
60641;SDS011;46837;52.446;-1.930;2023-04-19T03:56:07;30.90;;;15.72;;
60641;SDS011;46837;52.446;-1.930;2023-04-19T03:57:07;48.78;;;18.02;;
60641;SDS011;46837;52.446;-1.930;2023-04-19T03:58:07;30.14;;;15.94;;
60641;SDS011;46837;52.446;-1.930;2023-04-19T03:59:08;36.74;;;15.70;;
60641;SDS011;46837;52.446;-1.930;2023-04-19T04:00:08;36.96;;;14.76;;
60641;SDS011;46837;52.446;-1.930;2023-04-19T04:01:15;30.84;;;15.52;;
60641;SDS011;46837;52.446;-1.930;2023-04-19T04:02:07;34.36;;;13.74;;
60641;SDS011;46837;52.446;-1.930;2023-04-19T04:03:07;30.98;;;14.38;;
60641;SDS011;46837;52.446;-1.930;2023-04-19T04:04:07;21.18;;;13.36;;
60641;SDS011;46837;52.446;-1.930;2023-04-19T04:05:07;33.24;;;14.96;;
60641;SDS011;46837;52.446;-1.930;2023-04-19T04:06:07;37.28;;;14.90;;
60641;SDS011;46837;52.446;-1.930;2023-04-19T04:07:07;31.86;;;15.56;;
60641;SDS011;46837;52.446;-1.930;2023-04-19T04:08:07;31.94;;;13.96;;
60641;SDS011;46837;52.446;-1.930;2023-04-19T04:09:07;31.92;;;13.84;;
60641;SDS011;46837;52.446;-1.930;2023-04-19T04:10:07;29.22;;;14.60;;
60641;SDS011;46837;52.446;-1.930;2023-04-19T04:11:07;34.96;;;15.24;;
60641;SDS011;46837;52.446;-1.930;2023-04-19T04:12:07;33.86;;;15.62;;
60641;SDS011;46837;52.446;-1.930;2023-04-19T04:13:07;36.54;;;15.88;;
60641;SDS011;46837;52.446;-1.930;2023-04-19T04:14:07;38.60;;;17.26;;
60641;SDS011;46837;52.446;-1.930;2023-04-19T04:15:07;36.78;;;14.98;;
60641;SDS011;46837;52.446;-1.930;2023-04-19T04:16:07;37.64;;;15.36;;
60641;SDS011;46837;52.446;-1.930;2023-04-19T04:17:07;32.98;;;16.82;;
60641;SDS011;46837;52.446;-1.930;2023-04-19T04:18:07;31.24;;;16.52;;
60641;SDS011;46837;52.446;-1.930;2023-04-19T04:19:07;40.22;;;16.52;;
60641;SDS011;46837;52.446;-1.930;2023-04-19T04:20:07;24.04;;;14.40;;
60641;SDS011;46837;52.446;-1.930;2023-04-19T04:21:07;35.82;;;15.60;;
60641;SDS011;46837;52.446;-1.930;2023-04-19T04:22:07;35.74;;;16.42;;
60641;SDS011;46837;52.446;-1.930;2023-04-19T04:23:07;32.48;;;15.22;;
60641;SDS011;46837;52.446;-1.930;2023-04-19T04:24:07;30.48;;;16.42;;
60641;SDS011;46837;52.446;-1.930;2023-04-19T04:25:07;35.54;;;15.10;;
60641;SDS011;46837;52.446;-1.930;2023-04-19T04:26:09;27.76;;;14.98;;
60641;SDS011;46837;52.446;-1.930;2023-04-19T04:27:09;37.60;;;15.22;;
60641;SDS011;46837;52.446;-1.930;2023-04-19T04:28:07;35.02;;;15.24;;
60641;SDS011;46837;52.446;-1.930;2023-04-19T04:29:07;33.70;;;14.94;;
60641;SDS011;46837;52.446;-1.930;2023-04-19T04:30:07;36.94;;;15.70;;
60641;SDS011;46837;52.446;-1.930;2023-04-19T04:31:07;27.36;;;15.06;;
60641;SDS011;46837;52.446;-1.930;2023-04-19T04:32:08;38.66;;;17.26;;
60641;SDS011;46837;52.446;-1.930;2023-04-19T04:33:07;31.20;;;15.20;;
60641;SDS011;46837;52.446;-1.930;2023-04-19T04:34:07;36.28;;;16.82;;
60641;SDS011;46837;52.446;-1.930;2023-04-19T04:35:07;30.40;;;15.62;;
60641;SDS011;46837;52.446;-1.930;2023-04-19T04:36:07;30.82;;;15.90;;
60641;SDS011;46837;52.446;-1.930;2023-04-19T04:37:07;29.94;;;15.04;;
60641;SDS011;46837;52.446;-1.930;2023-04-19T04:38:07;26.24;;;17.06;;
60641;SDS011;46837;52.446;-1.930;2023-04-19T04:39:07;34.82;;;15.54;;
60641;SDS011;46837;52.446;-1.930;2023-04-19T04:40:07;31.50;;;15.48;;
60641;SDS011;46837;52.446;-1.930;2023-04-19T04:41:07;29.30;;;16.44;;
60641;SDS011;46837;52.446;-1.930;2023-04-19T04:42:08;32.92;;;14.74;;
60641;SDS011;46837;52.446;-1.930;2023-04-19T04:43:07;30.32;;;16.66;;
60641;SDS011;46837;52.446;-1.930;2023-04-19T04:44:07;37.12;;;16.34;;
60641;SDS011;46837;52.446;-1.930;2023-04-19T04:45:07;32.62;;;15.00;;
60641;SDS011;46837;52.446;-1.930;2023-04-19T04:46:07;30.84;;;16.22;;
60641;SDS011;46837;52.446;-1.930;2023-04-19T04:47:07;34.20;;;16.28;;
60641;SDS011;46837;52.446;-1.930;2023-04-19T04:48:07;38.40;;;16.92;;
60641;SDS011;46837;52.446;-1.930;2023-04-19T04:49:07;50.00;;;17.46;;
60641;SDS011;46837;52.446;-1.930;2023-04-19T04:50:07;39.68;;;16.02;;
60641;SDS011;46837;52.446;-1.930;2023-04-19T04:51:07;37.38;;;17.28;;
60641;SDS011;46837;52.446;-1.930;2023-04-19T04:52:07;32.70;;;16.44;;
60641;SDS011;46837;52.446;-1.930;2023-04-19T04:53:07;31.46;;;17.42;;
60641;SDS011;46837;52.446;-1.930;2023-04-19T04:54:07;38.42;;;17.18;;
60641;SDS011;46837;52.446;-1.930;2023-04-19T04:55:07;42.52;;;17.04;;
60641;SDS011;46837;52.446;-1.930;2023-04-19T04:56:07;28.98;;;17.26;;
60641;SDS011;46837;52.446;-1.930;2023-04-19T04:57:07;31.50;;;18.72;;
60641;SDS011;46837;52.446;-1.930;2023-04-19T04:58:07;29.42;;;17.96;;
60641;SDS011;46837;52.446;-1.930;2023-04-19T04:59:07;36.32;;;17.76;;
60641;SDS011;46837;52.446;-1.930;2023-04-19T05:00:07;37.22;;;18.74;;
60641;SDS011;46837;52.446;-1.930;2023-04-19T05:01:07;29.72;;;16.72;;
60641;SDS011;46837;52.446;-1.930;2023-04-19T05:02:07;41.50;;;17.02;;
60641;SDS011;46837;52.446;-1.930;2023-04-19T05:03:07;34.34;;;18.80;;
60641;SDS011;46837;52.446;-1.930;2023-04-19T05:04:07;32.26;;;17.98;;
60641;SDS011;46837;52.446;-1.930;2023-04-19T05:05:07;39.06;;;18.36;;
60641;SDS011;46837;52.446;-1.930;2023-04-19T05:06:07;39.36;;;18.34;;
60641;SDS011;46837;52.446;-1.930;2023-04-19T05:07:07;35.86;;;17.68;;
60641;SDS011;46837;52.446;-1.930;2023-04-19T05:08:07;25.52;;;17.02;;
60641;SDS011;46837;52.446;-1.930;2023-04-19T05:09:07;37.26;;;16.80;;
60641;SDS011;46837;52.446;-1.930;2023-04-19T05:10:07;34.20;;;18.34;;
60641;SDS011;46837;52.446;-1.930;2023-04-19T05:11:07;32.84;;;18.34;;
60641;SDS011;46837;52.446;-1.930;2023-04-19T05:12:07;34.30;;;18.36;;
60641;SDS011;46837;52.446;-1.930;2023-04-19T05:13:07;33.52;;;17.84;;
60641;SDS011;46837;52.446;-1.930;2023-04-19T05:14:07;35.98;;;19.34;;
60641;SDS011;46837;52.446;-1.930;2023-04-19T05:15:07;36.04;;;19.08;;
60641;SDS011;46837;52.446;-1.930;2023-04-19T05:16:07;40.68;;;18.08;;
60641;SDS011;46837;52.446;-1.930;2023-04-19T05:17:07;30.66;;;19.42;;
60641;SDS011;46837;52.446;-1.930;2023-04-19T05:18:07;32.00;;;17.86;;
60641;SDS011;46837;52.446;-1.930;2023-04-19T05:19:07;39.28;;;18.36;;
60641;SDS011;46837;52.446;-1.930;2023-04-19T05:20:07;43.84;;;18.92;;
60641;SDS011;46837;52.446;-1.930;2023-04-19T05:21:08;41.44;;;17.90;;
60641;SDS011;46837;52.446;-1.930;2023-04-19T05:22:07;36.80;;;17.80;;
60641;SDS011;46837;52.446;-1.930;2023-04-19T05:23:07;31.80;;;18.78;;
60641;SDS011;46837;52.446;-1.930;2023-04-19T05:24:07;33.54;;;18.06;;
60641;SDS011;46837;52.446;-1.930;2023-04-19T05:25:08;46.10;;;19.42;;
60641;SDS011;46837;52.446;-1.930;2023-04-19T05:26:07;35.72;;;19.92;;
60641;SDS011;46837;52.446;-1.930;2023-04-19T05:27:07;36.02;;;17.12;;
60641;SDS011;46837;52.446;-1.930;2023-04-19T05:28:07;40.12;;;18.22;;
60641;SDS011;46837;52.446;-1.930;2023-04-19T05:29:07;42.94;;;18.86;;
60641;SDS011;46837;52.446;-1.930;2023-04-19T05:30:07;31.80;;;17.14;;
60641;SDS011;46837;52.446;-1.930;2023-04-19T05:31:07;34.32;;;17.10;;
60641;SDS011;46837;52.446;-1.930;2023-04-19T05:32:07;28.42;;;17.64;;
60641;SDS011;46837;52.446;-1.930;2023-04-19T05:33:07;33.30;;;18.36;;
60641;SDS011;46837;52.446;-1.930;2023-04-19T05:34:07;33.98;;;16.88;;
60641;SDS011;46837;52.446;-1.930;2023-04-19T05:35:07;33.90;;;17.14;;
60641;SDS011;46837;52.446;-1.930;2023-04-19T05:36:07;34.14;;;17.44;;
60641;SDS011;46837;52.446;-1.930;2023-04-19T05:37:07;35.62;;;19.60;;
60641;SDS011;46837;52.446;-1.930;2023-04-19T05:38:07;36.78;;;17.56;;
60641;SDS011;46837;52.446;-1.930;2023-04-19T05:39:07;36.72;;;18.20;;
60641;SDS011;46837;52.446;-1.930;2023-04-19T05:40:07;38.84;;;17.94;;
60641;SDS011;46837;52.446;-1.930;2023-04-19T05:41:07;45.66;;;18.46;;
60641;SDS011;46837;52.446;-1.930;2023-04-19T05:42:07;46.46;;;18.70;;
60641;SDS011;46837;52.446;-1.930;2023-04-19T05:43:07;41.38;;;17.48;;
60641;SDS011;46837;52.446;-1.930;2023-04-19T05:44:08;31.02;;;19.26;;
60641;SDS011;46837;52.446;-1.930;2023-04-19T05:45:07;35.08;;;18.04;;